createdAt,value
2023-03-07T00:01:34.324Z,23.90
2023-03-07T00:03:46.936Z,26.10
2023-03-07T00:06:08.498Z,26.10
2023-03-07T00:08:21.038Z,25.60
2023-03-07T00:10:33.601Z,30.40
2023-03-07T00:12:46.183Z,35.60
2023-03-07T00:14:58.743Z,37.00
2023-03-07T00:17:11.309Z,32.40
2023-03-07T00:19:23.834Z,32.90
2023-03-07T00:21:36.502Z,33.20
2023-03-07T00:23:52.469Z,32.40
2023-03-07T00:26:08.140Z,34.30
2023-03-07T00:28:20.684Z,34.00
2023-03-07T00:30:33.240Z,29.60
2023-03-07T00:32:45.773Z,28.30
2023-03-07T00:34:59.752Z,27.70
2023-03-07T00:37:12.308Z,27.60
2023-03-07T00:39:24.997Z,27.30
2023-03-07T00:41:37.576Z,24.90
2023-03-07T00:43:50.669Z,24.40
2023-03-07T00:46:04.462Z,23.90
2023-03-07T00:48:18.192Z,24.50
2023-03-07T00:50:30.816Z,25.20
2023-03-07T00:52:43.376Z,23.60
2023-03-07T00:54:55.972Z,24.40
2023-03-07T00:57:08.519Z,23.40
2023-03-07T00:59:21.065Z,23.50
2023-03-07T01:01:33.632Z,25.60
2023-03-07T01:03:49.761Z,24.30
2023-03-07T01:06:08.447Z,26.20
2023-03-07T01:08:22.225Z,27.90
2023-03-07T01:10:34.746Z,30.60
2023-03-07T01:12:47.320Z,31.50
2023-03-07T01:14:59.904Z,33.70
2023-03-07T01:17:12.708Z,33.20
2023-03-07T01:19:25.344Z,31.70
2023-03-07T01:21:40.526Z,32.90
2023-03-07T01:23:53.956Z,33.10
2023-03-07T01:26:06.578Z,32.10
2023-03-07T01:28:19.221Z,33.70
2023-03-07T01:30:31.877Z,31.90
2023-03-07T01:32:44.660Z,30.60
2023-03-07T01:34:57.234Z,29.50
2023-03-07T01:37:09.961Z,28.40
2023-03-07T01:39:23.127Z,28.70
2023-03-07T01:41:37.651Z,29.40
2023-03-07T01:43:50.921Z,30.60
2023-03-07T01:46:18.879Z,32.20
2023-03-07T01:48:31.857Z,32.30
2023-03-07T01:50:44.764Z,30.30
2023-03-07T01:53:00.464Z,33.70
2023-03-07T01:55:18.020Z,32.70
2023-03-07T01:57:34.434Z,35.20
2023-03-07T01:59:50.846Z,36.60
2023-03-07T02:02:09.251Z,34.50
2023-03-07T02:04:33.243Z,38.40
2023-03-07T02:06:45.873Z,39.40
2023-03-07T02:08:59.644Z,42.50
2023-03-07T02:11:12.540Z,39.10
2023-03-07T02:13:25.129Z,37.80
2023-03-07T02:15:38.104Z,36.80
2023-03-07T02:17:51.480Z,34.00
2023-03-07T02:20:48.683Z,34.40
2023-03-07T02:23:02.516Z,34.80
2023-03-07T02:25:42.044Z,32.60
2023-03-07T02:27:56.959Z,33.50
2023-03-07T02:30:10.368Z,31.70
2023-03-07T02:32:23.360Z,37.10
2023-03-07T02:34:36.227Z,37.40
2023-03-07T02:36:53.432Z,35.60
2023-03-07T02:39:09.038Z,37.30
2023-03-07T02:41:26.173Z,36.60
2023-03-07T02:43:38.905Z,36.00
2023-03-07T02:45:51.571Z,34.30
2023-03-07T02:48:04.240Z,35.60
2023-03-07T02:50:17.584Z,34.10
2023-03-07T02:52:30.492Z,35.90
2023-03-07T02:54:43.116Z,43.20
2023-03-07T02:56:56.607Z,56.30
2023-03-07T02:59:09.200Z,51.40
2023-03-07T03:01:21.831Z,51.50
2023-03-07T03:03:34.662Z,39.90
2023-03-07T03:05:47.372Z,38.00
2023-03-07T03:07:59.970Z,35.60
2023-03-07T03:10:12.600Z,35.00
2023-03-07T03:12:25.122Z,34.40
2023-03-07T03:14:37.793Z,34.80
2023-03-07T03:16:52.500Z,35.30
2023-03-07T03:19:05.520Z,33.80
2023-03-07T03:21:18.024Z,33.80
2023-03-07T03:23:30.803Z,33.30
2023-03-07T03:25:43.476Z,32.40
2023-03-07T03:27:56.166Z,33.20
2023-03-07T03:30:12.611Z,32.60
2023-03-07T03:32:25.260Z,32.30
2023-03-07T03:34:37.895Z,32.00
2023-03-07T03:36:51.000Z,32.60
2023-03-07T03:39:03.989Z,32.70
2023-03-07T03:41:16.918Z,32.40
2023-03-07T03:43:29.496Z,33.20
2023-03-07T03:45:42.585Z,31.70
2023-03-07T03:47:55.191Z,32.30
2023-03-07T03:50:08.762Z,33.70
2023-03-07T03:52:23.446Z,32.70
2023-03-07T03:54:36.077Z,32.30
2023-03-07T03:56:48.764Z,31.30
2023-03-07T03:59:01.349Z,33.10
2023-03-07T04:01:14.156Z,32.30
2023-03-07T04:03:26.764Z,32.00
2023-03-07T04:05:39.327Z,33.40
2023-03-07T04:07:52.432Z,33.90
2023-03-07T04:10:05.823Z,32.30
2023-03-07T04:12:18.369Z,33.20
2023-03-07T04:14:30.960Z,33.20
2023-03-07T04:16:43.594Z,32.60
2023-03-07T04:18:56.261Z,32.80
2023-03-07T04:21:10.921Z,33.00
2023-03-07T04:23:24.885Z,34.00
2023-03-07T04:25:37.680Z,33.20
2023-03-07T04:27:50.318Z,32.30
2023-03-07T04:30:03.281Z,32.20
2023-03-07T04:32:15.957Z,33.50
2023-03-07T04:34:28.548Z,33.80
2023-03-07T04:36:42.698Z,33.30
2023-03-07T04:38:55.265Z,33.20
2023-03-07T04:41:11.177Z,31.70
2023-03-07T04:43:23.910Z,31.60
2023-03-07T04:45:37.256Z,30.50
2023-03-07T04:47:49.853Z,31.10
2023-03-07T04:50:02.548Z,31.20
2023-03-07T04:52:15.243Z,30.90
2023-03-07T04:54:27.848Z,30.40
2023-03-07T04:56:40.441Z,29.90
2023-03-07T04:58:53.308Z,29.20
2023-03-07T05:01:06.253Z,29.50
2023-03-07T05:03:18.970Z,29.50
2023-03-07T05:05:31.604Z,27.30
2023-03-07T05:07:44.263Z,27.40
2023-03-07T05:09:56.859Z,27.00
2023-03-07T05:12:09.811Z,28.20
2023-03-07T05:14:22.650Z,25.90
2023-03-07T05:16:35.336Z,27.80
2023-03-07T05:18:47.927Z,26.90
2023-03-07T05:21:00.502Z,26.70
2023-03-07T05:23:13.132Z,25.90
2023-03-07T05:25:25.753Z,27.10
2023-03-07T05:27:38.623Z,26.90
2023-03-07T05:29:51.434Z,26.60
2023-03-07T05:32:04.905Z,26.70
2023-03-07T05:34:17.549Z,25.30
2023-03-07T05:36:30.435Z,26.10
2023-03-07T05:38:43.542Z,24.70
2023-03-07T05:40:56.120Z,24.20
2023-03-07T05:43:08.706Z,24.40
2023-03-07T05:45:21.343Z,23.80
2023-03-07T05:47:33.932Z,23.40
2023-03-07T05:49:46.479Z,23.60
2023-03-07T05:51:59.043Z,24.60
2023-03-07T05:54:11.680Z,23.60
2023-03-07T05:56:24.261Z,24.30
2023-03-07T05:58:36.871Z,23.70
2023-03-07T06:00:49.600Z,22.80
2023-03-07T06:03:03.087Z,22.60
2023-03-07T06:05:15.826Z,23.40
2023-03-07T06:07:28.455Z,24.50
2023-03-07T06:09:41.098Z,24.10
2023-03-07T06:11:53.728Z,21.90
2023-03-07T06:14:06.295Z,23.90
2023-03-07T06:16:19.034Z,22.50
2023-03-07T06:18:31.637Z,36.50
2023-03-07T06:20:44.314Z,30.40
2023-03-07T06:22:56.850Z,26.60
2023-03-07T06:25:09.804Z,45.20
2023-03-07T06:27:22.325Z,21.70
2023-03-07T06:29:34.901Z,20.50
2023-03-07T06:31:47.583Z,21.20
2023-03-07T06:34:00.457Z,21.60
2023-03-07T06:36:14.943Z,21.10
2023-03-07T06:38:28.012Z,22.40
2023-03-07T06:40:40.545Z,21.20
2023-03-07T06:42:53.782Z,19.20
2023-03-07T06:45:06.914Z,20.40
2023-03-07T06:47:19.441Z,20.10
2023-03-07T06:49:31.974Z,20.40
2023-03-07T06:51:44.578Z,19.60
2023-03-07T06:53:57.776Z,19.00
2023-03-07T06:56:10.299Z,18.90
2023-03-07T06:58:22.882Z,18.30
2023-03-07T07:00:35.366Z,18.80
2023-03-07T07:02:48.158Z,18.90
2023-03-07T07:05:01.470Z,19.40
2023-03-07T07:07:14.184Z,19.60
2023-03-07T07:09:26.737Z,20.80
2023-03-07T07:11:39.349Z,20.70
2023-03-07T07:13:51.912Z,20.40
2023-03-07T07:16:06.181Z,20.80
2023-03-07T07:18:18.718Z,80.40
2023-03-07T07:20:31.350Z,25.40
2023-03-07T07:22:43.957Z,24.40
2023-03-07T07:24:56.548Z,19.30
2023-03-07T07:27:11.531Z,19.60
2023-03-07T07:29:25.730Z,19.90
2023-03-07T07:31:38.577Z,21.70
2023-03-07T07:33:51.178Z,47.60
2023-03-07T07:36:04.069Z,20.30
2023-03-07T07:38:16.682Z,19.00
2023-03-07T07:40:29.251Z,21.50
2023-03-07T07:42:43.370Z,20.60
2023-03-07T07:44:55.959Z,19.40
2023-03-07T07:47:08.501Z,71.30
2023-03-07T07:49:21.084Z,19.10
2023-03-07T07:51:33.931Z,23.50
2023-03-07T07:53:46.925Z,42.70
2023-03-07T07:55:59.521Z,88.60
2023-03-07T07:58:12.152Z,54.90
2023-03-07T08:00:25.024Z,25.50
2023-03-07T08:02:38.244Z,33.70
2023-03-07T08:04:50.842Z,17.20
2023-03-07T08:07:03.468Z,17.50
2023-03-07T08:09:16.178Z,17.90
2023-03-07T08:11:28.790Z,19.10
2023-03-07T08:13:41.362Z,40.70
2023-03-07T08:15:54.568Z,32.10
2023-03-07T08:18:07.149Z,33.70
2023-03-07T08:20:23.317Z,33.60
2023-03-07T08:22:39.666Z,21.50
2023-03-07T08:24:52.200Z,25.20
2023-03-07T08:27:05.269Z,21.80
2023-03-07T08:29:17.826Z,28.20
2023-03-07T08:31:30.431Z,18.90
2023-03-07T08:33:43.376Z,22.00
2023-03-07T08:36:00.634Z,22.40
2023-03-07T08:38:13.195Z,22.10
2023-03-07T08:40:27.130Z,21.80
2023-03-07T08:42:39.832Z,16.20
2023-03-07T08:44:52.474Z,24.40
2023-03-07T08:47:05.110Z,14.90
2023-03-07T08:49:17.775Z,15.40
2023-03-07T08:51:30.385Z,22.90
2023-03-07T08:53:44.351Z,14.50
2023-03-07T08:55:56.863Z,16.40
2023-03-07T08:58:10.243Z,14.70
2023-03-07T09:00:22.888Z,15.00
2023-03-07T09:02:36.077Z,14.40
2023-03-07T09:04:48.765Z,12.90
2023-03-07T09:07:01.868Z,15.50
2023-03-07T09:09:14.600Z,16.10
2023-03-07T09:11:27.252Z,14.20
2023-03-07T09:13:51.025Z,14.80
2023-03-07T09:16:06.180Z,14.30
2023-03-07T09:18:18.721Z,13.20
2023-03-07T09:20:31.243Z,16.60
2023-03-07T09:22:43.802Z,13.30
2023-03-07T09:24:56.660Z,12.10
2023-03-07T09:27:11.429Z,14.00
2023-03-07T09:29:24.865Z,12.00
2023-03-07T09:31:37.563Z,13.30
2023-03-07T09:33:50.230Z,12.40
2023-03-07T09:36:07.662Z,12.30
2023-03-07T09:38:20.341Z,12.40
2023-03-07T09:40:33.174Z,15.20
2023-03-07T09:43:16.492Z,14.20
2023-03-07T09:45:51.012Z,11.70
2023-03-07T09:48:24.077Z,12.40
2023-03-07T09:50:53.479Z,11.80
2023-03-07T09:53:06.275Z,11.50
2023-03-07T09:55:21.714Z,11.50
2023-03-07T09:57:40.672Z,11.50
2023-03-07T09:59:56.846Z,11.50
2023-03-07T10:02:32.421Z,10.90
2023-03-07T10:05:13.996Z,11.50
2023-03-07T10:07:27.995Z,11.60
2023-03-07T10:09:40.733Z,11.40
2023-03-07T10:12:09.312Z,11.60
2023-03-07T10:14:46.499Z,11.90
2023-03-07T10:17:24.315Z,11.10
2023-03-07T10:20:11.918Z,11.60
2023-03-07T10:22:38.540Z,11.30
2023-03-07T10:25:18.827Z,10.80
2023-03-07T10:27:32.129Z,11.70
2023-03-07T10:29:50.682Z,11.00
2023-03-07T10:32:32.693Z,11.30
2023-03-07T10:34:45.685Z,10.00
2023-03-07T10:37:09.363Z,10.10
2023-03-07T10:39:28.897Z,9.40
2023-03-07T10:41:41.441Z,8.90
2023-03-07T10:43:56.376Z,9.20
2023-03-07T10:46:26.511Z,8.30
2023-03-07T10:48:43.108Z,9.70
2023-03-07T10:51:07.011Z,9.90
2023-03-07T10:53:26.231Z,9.50
2023-03-07T10:55:43.641Z,8.50
2023-03-07T10:58:13.120Z,8.70
2023-03-07T11:00:26.206Z,8.60
2023-03-07T11:02:44.761Z,8.60
2023-03-07T11:04:58.264Z,8.30
2023-03-07T11:07:34.532Z,8.90
2023-03-07T11:09:47.838Z,8.50
2023-03-07T11:12:06.219Z,8.30
2023-03-07T11:14:19.125Z,9.40
2023-03-07T11:16:31.776Z,9.40
2023-03-07T11:18:45.600Z,9.20
2023-03-07T11:20:59.354Z,9.00
2023-03-07T11:23:31.466Z,8.80
2023-03-07T11:25:44.643Z,9.60
2023-03-07T11:27:59.408Z,9.20
2023-03-07T11:30:19.304Z,9.30
2023-03-07T11:32:33.573Z,9.70
2023-03-07T11:34:59.835Z,8.50
2023-03-07T11:37:38.162Z,8.40
2023-03-07T11:40:18.576Z,8.80
2023-03-07T11:42:37.839Z,9.00
2023-03-07T11:45:00.598Z,9.30
2023-03-07T11:47:24.804Z,8.40
2023-03-07T11:49:46.528Z,10.30
2023-03-07T11:52:32.816Z,9.40
2023-03-07T11:55:07.218Z,9.30
2023-03-07T11:57:53.187Z,9.10
2023-03-07T12:00:32.475Z,9.70
2023-03-07T12:03:10.888Z,9.60
2023-03-07T12:05:43.612Z,9.50
2023-03-07T12:08:15.299Z,8.80
2023-03-07T12:10:43.305Z,8.00
2023-03-07T12:13:33.215Z,8.70
2023-03-07T12:16:00.406Z,8.20
2023-03-07T12:18:38.514Z,8.10
2023-03-07T12:21:13.704Z,8.20
2023-03-07T12:23:38.824Z,8.00
2023-03-07T12:25:57.359Z,8.30
2023-03-07T12:28:44.103Z,7.60
2023-03-07T12:31:12.500Z,7.80
2023-03-07T12:33:53.068Z,7.80
2023-03-07T12:36:16.487Z,10.40
2023-03-07T12:38:47.919Z,7.50
2023-03-07T12:41:24.343Z,7.40
2023-03-07T12:43:43.827Z,7.00
2023-03-07T12:46:18.049Z,6.90
2023-03-07T12:48:42.954Z,6.60
2023-03-07T12:51:26.300Z,7.30
2023-03-07T12:53:49.438Z,10.80
2023-03-07T12:56:17.746Z,6.80
2023-03-07T12:58:47.377Z,6.90
2023-03-07T13:01:04.052Z,6.50
2023-03-07T13:03:29.319Z,6.60
2023-03-07T13:05:44.412Z,6.20
2023-03-07T13:07:57.481Z,5.40
2023-03-07T13:10:19.746Z,5.80
2023-03-07T13:12:35.003Z,5.80
2023-03-07T13:14:53.730Z,5.90
2023-03-07T13:17:12.947Z,6.00
2023-03-07T13:19:31.182Z,5.70
2023-03-07T13:21:43.854Z,6.20
2023-03-07T13:24:35.743Z,5.80
2023-03-07T13:26:55.148Z,6.60
2023-03-07T13:29:08.663Z,6.00
2023-03-07T13:31:22.309Z,5.80
2023-03-07T13:33:34.869Z,5.90
2023-03-07T13:35:58.676Z,5.20
2023-03-07T13:38:14.317Z,5.30
2023-03-07T13:40:34.650Z,5.80
2023-03-07T13:42:48.359Z,6.00
2023-03-07T13:45:01.009Z,6.10
2023-03-07T13:47:43.106Z,5.40
2023-03-07T13:49:55.627Z,5.90
2023-03-07T13:52:36.246Z,7.00
2023-03-07T13:54:50.769Z,5.90
2023-03-07T13:57:04.288Z,5.70
2023-03-07T13:59:24.611Z,6.10
2023-03-07T14:01:44.104Z,6.80
2023-03-07T14:04:41.108Z,7.20
2023-03-07T14:07:01.562Z,6.30
2023-03-07T14:09:28.783Z,6.60
2023-03-07T14:12:04.835Z,6.40
2023-03-07T14:14:49.557Z,6.40
2023-03-07T14:17:08.352Z,8.70
2023-03-07T14:19:38.059Z,6.60
2023-03-07T14:21:57.762Z,6.20
2023-03-07T14:24:34.217Z,7.30
2023-03-07T14:26:53.084Z,8.40
2023-03-07T14:29:52.030Z,6.70
2023-03-07T14:32:21.771Z,6.10
2023-03-07T14:34:36.354Z,7.70
2023-03-07T14:36:54.242Z,6.50
2023-03-07T14:39:14.164Z,9.00
2023-03-07T14:41:56.165Z,9.20
2023-03-07T14:44:36.912Z,7.50
2023-03-07T14:47:22.642Z,8.60
2023-03-07T14:49:44.551Z,7.00
2023-03-07T14:51:58.137Z,7.80
2023-03-07T14:54:17.087Z,8.50
2023-03-07T14:56:32.299Z,8.10
2023-03-07T14:58:51.297Z,8.00
2023-03-07T15:01:11.123Z,8.90
2023-03-07T15:03:23.705Z,8.60
2023-03-07T15:05:47.181Z,8.30
2023-03-07T15:07:59.787Z,7.10
2023-03-07T15:10:22.788Z,7.80
2023-03-07T15:12:35.546Z,9.50
2023-03-07T15:14:57.050Z,8.60
2023-03-07T15:17:18.601Z,10.40
2023-03-07T15:19:39.361Z,8.10
2023-03-07T15:22:01.590Z,8.40
2023-03-07T15:24:29.214Z,11.70
2023-03-07T15:26:49.175Z,7.80
2023-03-07T15:29:09.043Z,10.20
2023-03-07T15:31:22.969Z,8.40
2023-03-07T15:33:35.876Z,7.80
2023-03-07T15:36:13.139Z,10.20
2023-03-07T15:38:26.299Z,13.30
2023-03-07T15:40:38.908Z,9.20
2023-03-07T15:42:54.432Z,9.10
2023-03-07T15:45:29.303Z,8.70
2023-03-07T15:47:41.910Z,8.90
2023-03-07T15:50:00.705Z,8.60
2023-03-07T15:52:39.865Z,7.70
2023-03-07T15:54:55.109Z,12.60
2023-03-07T15:57:22.094Z,11.10
2023-03-07T15:59:41.921Z,11.30
2023-03-07T16:01:54.897Z,8.60
2023-03-07T16:04:38.612Z,12.00
2023-03-07T16:06:51.139Z,11.50
2023-03-07T16:09:05.067Z,15.70
2023-03-07T16:11:19.936Z,12.30
2023-03-07T16:13:39.091Z,14.50
2023-03-07T16:15:59.527Z,10.30
2023-03-07T16:18:21.911Z,31.90
2023-03-07T16:20:34.442Z,11.40
2023-03-07T16:22:47.778Z,15.70
2023-03-07T16:25:00.355Z,13.30
2023-03-07T16:27:17.618Z,31.70
2023-03-07T16:29:30.180Z,37.50
2023-03-07T16:31:43.159Z,20.00
2023-03-07T16:33:56.180Z,15.10
2023-03-07T16:36:10.608Z,13.40
2023-03-07T16:38:23.754Z,14.20
2023-03-07T16:40:42.127Z,17.10
2023-03-07T16:42:56.150Z,13.90
2023-03-07T16:45:15.547Z,13.90
2023-03-07T16:47:28.181Z,9.20
2023-03-07T16:49:40.959Z,12.30
2023-03-07T16:52:05.195Z,9.00
2023-03-07T16:54:18.847Z,13.80
2023-03-07T16:56:44.747Z,9.70
2023-03-07T16:58:58.345Z,17.50
2023-03-07T17:01:14.831Z,17.60
2023-03-07T17:03:29.754Z,9.30
2023-03-07T17:05:42.409Z,14.20
2023-03-07T17:07:56.848Z,12.80
2023-03-07T17:10:10.665Z,9.60
2023-03-07T17:12:23.914Z,18.90
2023-03-07T17:14:36.550Z,13.40
2023-03-07T17:16:50.273Z,17.90
2023-03-07T17:19:02.918Z,14.50
2023-03-07T17:21:18.806Z,11.90
2023-03-07T17:23:31.506Z,9.70
2023-03-07T17:25:44.076Z,11.10
2023-03-07T17:28:03.812Z,10.70
2023-03-07T17:30:22.168Z,10.50
2023-03-07T17:32:34.828Z,11.70
2023-03-07T17:34:47.474Z,10.40
2023-03-07T17:37:00.559Z,13.30
2023-03-07T17:39:14.160Z,10.20
2023-03-07T17:41:26.681Z,10.00
2023-03-07T17:43:39.594Z,8.90
2023-03-07T17:45:52.141Z,9.00
2023-03-07T17:48:04.736Z,8.70
2023-03-07T17:50:19.457Z,9.00
2023-03-07T17:52:32.988Z,8.60
2023-03-07T17:54:45.915Z,10.10
2023-03-07T17:56:58.628Z,10.70
2023-03-07T17:59:12.027Z,9.50
2023-03-07T18:01:24.550Z,8.80
2023-03-07T18:03:38.379Z,9.00
2023-03-07T18:05:51.023Z,9.10
2023-03-07T18:08:04.958Z,8.70
2023-03-07T18:10:17.749Z,9.00
2023-03-07T18:12:30.651Z,9.60
2023-03-07T18:14:43.166Z,10.30
2023-03-07T18:16:55.758Z,9.10
2023-03-07T18:19:14.279Z,9.40
2023-03-07T18:21:30.595Z,9.30
2023-03-07T18:23:43.227Z,14.70
2023-03-07T18:26:03.332Z,8.70
2023-03-07T18:28:16.219Z,9.80
2023-03-07T18:30:29.188Z,9.20
2023-03-07T18:32:41.878Z,8.20
2023-03-07T18:34:54.501Z,8.70
2023-03-07T18:37:08.194Z,9.90
2023-03-07T18:39:22.693Z,8.10
2023-03-07T18:41:35.254Z,8.30
2023-03-07T18:43:47.926Z,8.30
2023-03-07T18:46:02.878Z,9.20
2023-03-07T18:48:15.379Z,9.00
2023-03-07T18:50:27.931Z,11.80
2023-03-07T18:52:40.700Z,11.20
2023-03-07T18:54:53.267Z,8.50
2023-03-07T18:57:05.809Z,9.10
2023-03-07T18:59:18.585Z,13.10
2023-03-07T19:01:33.575Z,9.30
2023-03-07T19:03:48.225Z,10.70
2023-03-07T19:06:02.366Z,12.10
2023-03-07T19:08:16.141Z,11.30
2023-03-07T19:10:28.819Z,12.90
2023-03-07T19:12:41.435Z,10.60
2023-03-07T19:14:54.695Z,9.80
2023-03-07T19:17:07.281Z,14.90
2023-03-07T19:19:19.982Z,10.00
2023-03-07T19:21:32.592Z,9.80
2023-03-07T19:23:46.612Z,10.50
2023-03-07T19:26:07.319Z,9.40
2023-03-07T19:28:20.115Z,9.00
2023-03-07T19:30:35.454Z,9.10
2023-03-07T19:32:48.194Z,16.10
2023-03-07T19:35:00.955Z,9.70
2023-03-07T19:37:13.670Z,10.80
2023-03-07T19:39:26.284Z,10.70
2023-03-07T19:41:40.479Z,14.70
2023-03-07T19:43:54.847Z,10.00
2023-03-07T19:46:09.814Z,18.50
2023-03-07T19:48:23.214Z,10.20
2023-03-07T19:50:40.207Z,9.90
2023-03-07T19:52:52.838Z,10.10
2023-03-07T19:55:06.919Z,13.70
2023-03-07T19:57:19.636Z,15.30
2023-03-07T19:59:32.156Z,12.40
2023-03-07T20:01:45.274Z,10.30
2023-03-07T20:03:58.380Z,18.60
2023-03-07T20:06:15.786Z,10.10
2023-03-07T20:08:33.524Z,12.20
2023-03-07T20:10:46.352Z,10.90
2023-03-07T20:12:59.164Z,9.20
2023-03-07T20:15:13.013Z,12.40
2023-03-07T20:17:26.037Z,13.80
2023-03-07T20:19:39.253Z,11.40
2023-03-07T20:21:51.947Z,10.40
2023-03-07T20:24:04.847Z,11.50
2023-03-07T20:26:23.113Z,9.90
2023-03-07T20:28:36.636Z,11.00
2023-03-07T20:30:49.275Z,10.20
2023-03-07T20:33:02.280Z,10.00
2023-03-07T20:35:14.980Z,16.90
2023-03-07T20:37:27.637Z,14.50
2023-03-07T20:39:40.451Z,13.50
2023-03-07T20:41:53.139Z,9.80
2023-03-07T20:44:07.336Z,9.20
2023-03-07T20:46:22.076Z,10.60
2023-03-07T20:48:35.278Z,12.50
2023-03-07T20:50:47.823Z,9.40
2023-03-07T20:53:00.384Z,9.60
2023-03-07T20:55:13.166Z,20.40
2023-03-07T20:57:25.895Z,12.40
2023-03-07T20:59:38.600Z,13.20
2023-03-07T21:01:51.198Z,14.40
2023-03-07T21:04:08.058Z,10.10
2023-03-07T21:06:21.480Z,7.30
2023-03-07T21:08:36.474Z,18.80
2023-03-07T21:11:00.385Z,11.80
2023-03-07T21:13:13.200Z,9.70
2023-03-07T21:15:25.825Z,10.00
2023-03-07T21:17:38.539Z,10.80
2023-03-07T21:19:51.115Z,11.40
2023-03-07T21:22:04.063Z,10.40
2023-03-07T21:24:16.672Z,11.80
2023-03-07T21:26:31.336Z,11.50
2023-03-07T21:28:44.384Z,10.90
2023-03-07T21:31:02.224Z,13.70
2023-03-07T21:33:14.850Z,14.90
2023-03-07T21:35:27.452Z,17.50
2023-03-07T21:37:40.146Z,18.00
2023-03-07T21:39:52.734Z,16.50
2023-03-07T21:42:05.443Z,14.00
2023-03-07T21:44:18.222Z,10.90
2023-03-07T21:46:31.233Z,10.90
2023-03-07T21:48:43.800Z,9.80
2023-03-07T21:50:56.400Z,7.80
2023-03-07T21:53:09.664Z,9.90
2023-03-07T21:55:24.752Z,10.00
2023-03-07T21:57:37.343Z,14.90
2023-03-07T21:59:49.995Z,12.70
2023-03-07T22:02:02.628Z,11.20
2023-03-07T22:04:15.263Z,16.70
2023-03-07T22:06:28.548Z,11.40
2023-03-07T22:08:41.374Z,11.40
2023-03-07T22:11:00.222Z,8.70
2023-03-07T22:13:12.924Z,7.90
2023-03-07T22:15:25.865Z,10.80
2023-03-07T22:17:38.415Z,9.80
2023-03-07T22:19:51.029Z,9.50
2023-03-07T22:22:03.672Z,10.10
2023-03-07T22:24:16.256Z,9.60
2023-03-07T22:26:30.872Z,9.00
2023-03-07T22:28:43.518Z,8.70
2023-03-07T22:31:00.552Z,9.00
2023-03-07T22:33:13.309Z,9.00
2023-03-07T22:35:26.291Z,8.80
2023-03-07T22:37:38.977Z,8.40
2023-03-07T22:39:51.570Z,8.80
2023-03-07T22:42:04.111Z,8.60
2023-03-07T22:44:19.406Z,9.20
2023-03-07T22:46:31.957Z,9.00
2023-03-07T22:48:44.598Z,9.10
2023-03-07T22:50:57.782Z,10.50
2023-03-07T22:53:10.453Z,9.80
2023-03-07T22:55:23.063Z,8.80
2023-03-07T22:57:35.649Z,9.80
2023-03-07T22:59:48.725Z,10.00
2023-03-07T23:02:01.222Z,10.10
2023-03-07T23:04:13.820Z,9.60
2023-03-07T23:06:29.480Z,9.00
2023-03-07T23:08:46.972Z,8.30
2023-03-07T23:11:05.525Z,12.70
2023-03-07T23:13:18.108Z,10.00
2023-03-07T23:15:31.336Z,8.60
2023-03-07T23:17:44.615Z,8.80
2023-03-07T23:19:57.164Z,8.40
2023-03-07T23:22:09.960Z,8.50
2023-03-07T23:24:22.553Z,7.60
2023-03-07T23:26:37.453Z,7.60
2023-03-07T23:28:50.906Z,8.00
2023-03-07T23:31:04.187Z,9.50
2023-03-07T23:33:16.895Z,9.60
2023-03-07T23:35:32.405Z,10.60
2023-03-07T23:37:47.460Z,13.90
2023-03-07T23:40:00.835Z,9.50
2023-03-07T23:42:13.930Z,12.90
2023-03-07T23:44:26.487Z,10.30
2023-03-07T23:46:39.124Z,10.60
2023-03-07T23:48:52.735Z,8.70
2023-03-07T23:51:05.331Z,8.40
2023-03-07T23:53:17.860Z,8.30
2023-03-07T23:55:30.479Z,8.00
2023-03-07T23:57:43.318Z,7.20
2023-03-07T23:59:56.036Z,7.40
